sensor_id;sensor_type;location;lat;lon;timestamp;P1;durP1;ratioP1;P2;durP2;ratioP2
17818;SDS011;9034;50.284;19.310;2024-02-23T00:00:41;3.03;;;2.60;;
17818;SDS011;9034;50.284;19.310;2024-02-23T00:01:44;6.05;;;2.70;;
17818;SDS011;9034;50.284;19.310;2024-02-23T00:02:47;3.83;;;2.17;;
17818;SDS011;9034;50.284;19.310;2024-02-23T00:03:50;3.60;;;2.67;;
17818;SDS011;9034;50.284;19.310;2024-02-23T00:04:53;2.95;;;2.30;;
17818;SDS011;9034;50.284;19.310;2024-02-23T00:05:55;3.63;;;2.65;;
17818;SDS011;9034;50.284;19.310;2024-02-23T00:06:58;4.15;;;2.88;;
17818;SDS011;9034;50.284;19.310;2024-02-23T00:08:00;2.35;;;2.15;;
17818;SDS011;9034;50.284;19.310;2024-02-23T00:09:03;3.35;;;2.30;;
17818;SDS011;9034;50.284;19.310;2024-02-23T00:10:06;3.42;;;2.70;;
17818;SDS011;9034;50.284;19.310;2024-02-23T00:11:10;3.85;;;2.40;;
17818;SDS011;9034;50.284;19.310;2024-02-23T00:12:13;3.42;;;2.83;;
17818;SDS011;9034;50.284;19.310;2024-02-23T00:13:16;3.63;;;2.45;;
17818;SDS011;9034;50.284;19.310;2024-02-23T00:14:19;3.08;;;2.40;;
17818;SDS011;9034;50.284;19.310;2024-02-23T00:15:21;4.65;;;2.65;;
17818;SDS011;9034;50.284;19.310;2024-02-23T00:16:26;3.83;;;2.53;;
17818;SDS011;9034;50.284;19.310;2024-02-23T00:17:28;3.05;;;2.75;;
17818;SDS011;9034;50.284;19.310;2024-02-23T00:18:31;5.70;;;2.65;;
17818;SDS011;9034;50.284;19.310;2024-02-23T00:19:33;2.90;;;2.65;;
17818;SDS011;9034;50.284;19.310;2024-02-23T00:20:36;3.97;;;2.67;;
17818;SDS011;9034;50.284;19.310;2024-02-23T00:21:38;4.95;;;2.97;;
17818;SDS011;9034;50.284;19.310;2024-02-23T00:22:41;2.72;;;2.45;;
17818;SDS011;9034;50.284;19.310;2024-02-23T00:23:44;4.05;;;3.00;;
17818;SDS011;9034;50.284;19.310;2024-02-23T00:24:46;2.50;;;2.30;;
17818;SDS011;9034;50.284;19.310;2024-02-23T00:25:49;4.22;;;2.70;;
17818;SDS011;9034;50.284;19.310;2024-02-23T00:26:53;3.88;;;2.92;;
17818;SDS011;9034;50.284;19.310;2024-02-23T00:27:56;3.25;;;2.60;;
17818;SDS011;9034;50.284;19.310;2024-02-23T00:28:58;3.72;;;2.67;;
17818;SDS011;9034;50.284;19.310;2024-02-23T00:30:03;3.58;;;2.50;;
17818;SDS011;9034;50.284;19.310;2024-02-23T00:31:05;2.92;;;2.50;;
17818;SDS011;9034;50.284;19.310;2024-02-23T00:32:08;3.33;;;2.30;;
17818;SDS011;9034;50.284;19.310;2024-02-23T00:33:10;4.07;;;2.53;;
17818;SDS011;9034;50.284;19.310;2024-02-23T00:34:12;3.08;;;2.30;;
17818;SDS011;9034;50.284;19.310;2024-02-23T00:35:16;2.42;;;1.98;;
17818;SDS011;9034;50.284;19.310;2024-02-23T00:36:18;2.53;;;2.33;;
17818;SDS011;9034;50.284;19.310;2024-02-23T00:37:21;3.00;;;2.58;;
17818;SDS011;9034;50.284;19.310;2024-02-23T00:38:23;2.80;;;2.53;;
17818;SDS011;9034;50.284;19.310;2024-02-23T00:39:25;2.78;;;2.35;;
17818;SDS011;9034;50.284;19.310;2024-02-23T00:40:28;2.90;;;2.50;;
17818;SDS011;9034;50.284;19.310;2024-02-23T00:41:30;3.08;;;2.25;;
17818;SDS011;9034;50.284;19.310;2024-02-23T00:42:35;2.88;;;2.60;;
17818;SDS011;9034;50.284;19.310;2024-02-23T00:43:37;4.30;;;2.33;;
17818;SDS011;9034;50.284;19.310;2024-02-23T00:44:40;3.83;;;2.60;;
17818;SDS011;9034;50.284;19.310;2024-02-23T00:45:42;2.65;;;2.22;;
17818;SDS011;9034;50.284;19.310;2024-02-23T00:46:44;3.20;;;2.85;;
17818;SDS011;9034;50.284;19.310;2024-02-23T00:47:47;4.53;;;2.70;;
17818;SDS011;9034;50.284;19.310;2024-02-23T00:48:49;3.72;;;3.15;;
17818;SDS011;9034;50.284;19.310;2024-02-23T00:49:52;5.80;;;2.75;;
17818;SDS011;9034;50.284;19.310;2024-02-23T00:50:54;2.92;;;2.40;;
17818;SDS011;9034;50.284;19.310;2024-02-23T00:51:57;3.22;;;2.72;;
17818;SDS011;9034;50.284;19.310;2024-02-23T00:52:59;4.22;;;2.65;;
17818;SDS011;9034;50.284;19.310;2024-02-23T00:54:02;2.90;;;2.60;;
17818;SDS011;9034;50.284;19.310;2024-02-23T00:55:05;4.22;;;2.95;;
17818;SDS011;9034;50.284;19.310;2024-02-23T00:56:09;4.05;;;3.05;;
17818;SDS011;9034;50.284;19.310;2024-02-23T00:57:11;3.67;;;2.83;;
17818;SDS011;9034;50.284;19.310;2024-02-23T00:58:16;5.13;;;2.95;;
17818;SDS011;9034;50.284;19.310;2024-02-23T00:59:18;5.47;;;2.97;;
17818;SDS011;9034;50.284;19.310;2024-02-23T01:00:22;4.38;;;3.05;;
17818;SDS011;9034;50.284;19.310;2024-02-23T01:01:25;4.22;;;2.75;;
17818;SDS011;9034;50.284;19.310;2024-02-23T01:02:28;3.63;;;2.80;;
17818;SDS011;9034;50.284;19.310;2024-02-23T01:03:31;5.70;;;2.90;;
17818;SDS011;9034;50.284;19.310;2024-02-23T01:04:34;4.78;;;3.00;;
17818;SDS011;9034;50.284;19.310;2024-02-23T01:05:36;4.72;;;3.13;;
17818;SDS011;9034;50.284;19.310;2024-02-23T01:06:41;4.53;;;2.72;;
17818;SDS011;9034;50.284;19.310;2024-02-23T01:07:43;3.80;;;3.05;;
17818;SDS011;9034;50.284;19.310;2024-02-23T01:08:46;3.47;;;2.90;;
17818;SDS011;9034;50.284;19.310;2024-02-23T01:09:49;3.08;;;2.72;;
17818;SDS011;9034;50.284;19.310;2024-02-23T01:10:52;3.65;;;3.03;;
17818;SDS011;9034;50.284;19.310;2024-02-23T01:11:54;3.58;;;3.00;;
17818;SDS011;9034;50.284;19.310;2024-02-23T01:12:57;5.05;;;3.10;;
17818;SDS011;9034;50.284;19.310;2024-02-23T01:14:00;5.07;;;3.13;;
17818;SDS011;9034;50.284;19.310;2024-02-23T01:15:03;4.45;;;3.13;;
17818;SDS011;9034;50.284;19.310;2024-02-23T01:16:06;4.25;;;3.10;;
17818;SDS011;9034;50.284;19.310;2024-02-23T01:17:10;3.70;;;2.80;;
17818;SDS011;9034;50.284;19.310;2024-02-23T01:18:12;5.13;;;3.17;;
17818;SDS011;9034;50.284;19.310;2024-02-23T01:19:15;3.00;;;2.70;;
17818;SDS011;9034;50.284;19.310;2024-02-23T01:20:17;4.13;;;3.20;;
17818;SDS011;9034;50.284;19.310;2024-02-23T01:21:19;5.13;;;3.15;;
17818;SDS011;9034;50.284;19.310;2024-02-23T01:22:22;4.47;;;3.17;;
17818;SDS011;9034;50.284;19.310;2024-02-23T01:23:25;3.20;;;2.75;;
17818;SDS011;9034;50.284;19.310;2024-02-23T01:24:28;2.90;;;2.60;;
17818;SDS011;9034;50.284;19.310;2024-02-23T01:25:30;3.50;;;3.03;;
17818;SDS011;9034;50.284;19.310;2024-02-23T01:26:36;4.53;;;3.03;;
17818;SDS011;9034;50.284;19.310;2024-02-23T01:27:43;3.78;;;3.35;;
17818;SDS011;9034;50.284;19.310;2024-02-23T01:28:46;5.25;;;3.50;;
17818;SDS011;9034;50.284;19.310;2024-02-23T01:29:50;4.07;;;3.17;;
17818;SDS011;9034;50.284;19.310;2024-02-23T01:30:53;4.95;;;2.90;;
17818;SDS011;9034;50.284;19.310;2024-02-23T01:31:55;3.63;;;2.97;;
17818;SDS011;9034;50.284;19.310;2024-02-23T01:32:57;4.10;;;2.80;;
17818;SDS011;9034;50.284;19.310;2024-02-23T01:34:00;5.22;;;3.20;;
17818;SDS011;9034;50.284;19.310;2024-02-23T01:35:02;4.10;;;3.30;;
17818;SDS011;9034;50.284;19.310;2024-02-23T01:36:05;6.55;;;3.42;;
17818;SDS011;9034;50.284;19.310;2024-02-23T01:37:08;5.40;;;3.10;;
17818;SDS011;9034;50.284;19.310;2024-02-23T01:38:10;5.22;;;3.35;;
17818;SDS011;9034;50.284;19.310;2024-02-23T01:39:20;3.88;;;3.30;;
17818;SDS011;9034;50.284;19.310;2024-02-23T01:40:22;4.03;;;3.17;;
17818;SDS011;9034;50.284;19.310;2024-02-23T01:41:25;3.65;;;2.85;;
17818;SDS011;9034;50.284;19.310;2024-02-23T01:42:27;4.30;;;3.30;;
17818;SDS011;9034;50.284;19.310;2024-02-23T01:43:29;5.18;;;3.42;;
17818;SDS011;9034;50.284;19.310;2024-02-23T01:44:32;5.45;;;3.05;;
17818;SDS011;9034;50.284;19.310;2024-02-23T01:45:35;3.83;;;3.03;;
17818;SDS011;9034;50.284;19.310;2024-02-23T01:46:38;5.28;;;3.25;;
17818;SDS011;9034;50.284;19.310;2024-02-23T01:47:40;3.88;;;2.63;;
17818;SDS011;9034;50.284;19.310;2024-02-23T01:48:43;5.88;;;3.47;;
17818;SDS011;9034;50.284;19.310;2024-02-23T01:49:46;4.90;;;2.92;;
17818;SDS011;9034;50.284;19.310;2024-02-23T01:50:49;5.30;;;2.75;;
17818;SDS011;9034;50.284;19.310;2024-02-23T01:51:52;6.15;;;2.78;;
17818;SDS011;9034;50.284;19.310;2024-02-23T01:52:56;3.70;;;2.80;;
17818;SDS011;9034;50.284;19.310;2024-02-23T01:53:59;3.92;;;3.05;;
17818;SDS011;9034;50.284;19.310;2024-02-23T01:55:03;3.20;;;2.90;;
17818;SDS011;9034;50.284;19.310;2024-02-23T01:56:05;3.63;;;3.13;;
17818;SDS011;9034;50.284;19.310;2024-02-23T01:57:08;4.68;;;3.38;;
17818;SDS011;9034;50.284;19.310;2024-02-23T01:58:31;3.38;;;2.55;;
17818;SDS011;9034;50.284;19.310;2024-02-23T01:59:36;4.13;;;2.92;;
17818;SDS011;9034;50.284;19.310;2024-02-23T02:00:41;3.70;;;3.25;;
17818;SDS011;9034;50.284;19.310;2024-02-23T02:01:44;4.60;;;3.05;;
17818;SDS011;9034;50.284;19.310;2024-02-23T02:02:47;3.85;;;2.70;;
17818;SDS011;9034;50.284;19.310;2024-02-23T02:03:50;3.13;;;2.67;;
17818;SDS011;9034;50.284;19.310;2024-02-23T02:04:54;3.30;;;2.83;;
17818;SDS011;9034;50.284;19.310;2024-02-23T02:05:55;3.85;;;3.35;;
17818;SDS011;9034;50.284;19.310;2024-02-23T02:07:00;3.58;;;2.92;;
17818;SDS011;9034;50.284;19.310;2024-02-23T02:08:02;4.22;;;3.17;;
17818;SDS011;9034;50.284;19.310;2024-02-23T02:09:06;3.55;;;2.80;;
17818;SDS011;9034;50.284;19.310;2024-02-23T02:10:08;3.78;;;2.90;;
17818;SDS011;9034;50.284;19.310;2024-02-23T02:11:12;3.83;;;3.33;;
17818;SDS011;9034;50.284;19.310;2024-02-23T02:12:14;4.28;;;3.25;;
17818;SDS011;9034;50.284;19.310;2024-02-23T02:13:17;4.90;;;3.17;;
17818;SDS011;9034;50.284;19.310;2024-02-23T02:14:19;3.80;;;2.92;;
17818;SDS011;9034;50.284;19.310;2024-02-23T02:15:22;2.97;;;2.70;;
17818;SDS011;9034;50.284;19.310;2024-02-23T02:16:25;4.68;;;3.38;;
17818;SDS011;9034;50.284;19.310;2024-02-23T02:17:27;4.60;;;3.20;;
17818;SDS011;9034;50.284;19.310;2024-02-23T02:18:32;4.38;;;3.35;;
17818;SDS011;9034;50.284;19.310;2024-02-23T02:19:34;4.03;;;2.90;;
17818;SDS011;9034;50.284;19.310;2024-02-23T02:20:38;3.30;;;2.92;;
17818;SDS011;9034;50.284;19.310;2024-02-23T02:21:50;3.55;;;2.88;;
17818;SDS011;9034;50.284;19.310;2024-02-23T02:22:53;5.55;;;3.10;;
17818;SDS011;9034;50.284;19.310;2024-02-23T02:23:55;3.97;;;3.13;;
17818;SDS011;9034;50.284;19.310;2024-02-23T02:24:58;2.88;;;2.65;;
17818;SDS011;9034;50.284;19.310;2024-02-23T02:26:00;4.07;;;3.08;;
17818;SDS011;9034;50.284;19.310;2024-02-23T02:27:03;4.70;;;3.03;;
17818;SDS011;9034;50.284;19.310;2024-02-23T02:28:08;2.92;;;2.65;;
17818;SDS011;9034;50.284;19.310;2024-02-23T02:29:11;4.90;;;3.03;;
17818;SDS011;9034;50.284;19.310;2024-02-23T02:30:13;4.50;;;3.10;;
17818;SDS011;9034;50.284;19.310;2024-02-23T02:31:17;4.32;;;2.88;;
17818;SDS011;9034;50.284;19.310;2024-02-23T02:32:20;3.42;;;2.83;;
17818;SDS011;9034;50.284;19.310;2024-02-23T02:33:23;3.42;;;2.95;;
17818;SDS011;9034;50.284;19.310;2024-02-23T02:34:25;3.83;;;3.13;;
17818;SDS011;9034;50.284;19.310;2024-02-23T02:35:30;3.40;;;2.90;;
17818;SDS011;9034;50.284;19.310;2024-02-23T02:36:32;3.83;;;3.20;;
17818;SDS011;9034;50.284;19.310;2024-02-23T02:37:35;4.30;;;3.22;;
17818;SDS011;9034;50.284;19.310;2024-02-23T02:38:37;4.55;;;3.15;;
17818;SDS011;9034;50.284;19.310;2024-02-23T02:39:41;3.83;;;3.10;;
17818;SDS011;9034;50.284;19.310;2024-02-23T02:40:43;7.55;;;3.45;;
17818;SDS011;9034;50.284;19.310;2024-02-23T02:41:45;5.15;;;3.17;;
17818;SDS011;9034;50.284;19.310;2024-02-23T02:42:48;5.50;;;3.38;;
17818;SDS011;9034;50.284;19.310;2024-02-23T02:43:50;4.45;;;2.97;;
17818;SDS011;9034;50.284;19.310;2024-02-23T02:44:53;4.47;;;3.33;;
17818;SDS011;9034;50.284;19.310;2024-02-23T02:45:55;3.25;;;2.95;;
17818;SDS011;9034;50.284;19.310;2024-02-23T02:46:58;4.00;;;3.10;;
17818;SDS011;9034;50.284;19.310;2024-02-23T02:48:02;4.13;;;3.30;;
17818;SDS011;9034;50.284;19.310;2024-02-23T02:49:06;3.67;;;3.28;;
17818;SDS011;9034;50.284;19.310;2024-02-23T02:50:08;4.97;;;3.65;;
17818;SDS011;9034;50.284;19.310;2024-02-23T02:51:11;4.07;;;3.45;;
17818;SDS011;9034;50.284;19.310;2024-02-23T02:52:14;4.38;;;3.38;;
17818;SDS011;9034;50.284;19.310;2024-02-23T02:53:17;5.00;;;3.30;;
17818;SDS011;9034;50.284;19.310;2024-02-23T02:54:19;3.88;;;3.28;;
17818;SDS011;9034;50.284;19.310;2024-02-23T02:55:27;4.05;;;3.58;;
17818;SDS011;9034;50.284;19.310;2024-02-23T02:56:30;4.38;;;3.33;;
17818;SDS011;9034;50.284;19.310;2024-02-23T02:57:33;3.92;;;3.53;;
17818;SDS011;9034;50.284;19.310;2024-02-23T02:58:37;4.45;;;3.70;;
17818;SDS011;9034;50.284;19.310;2024-02-23T02:59:39;5.18;;;3.50;;
17818;SDS011;9034;50.284;19.310;2024-02-23T03:00:42;6.57;;;4.00;;
17818;SDS011;9034;50.284;19.310;2024-02-23T03:01:44;4.65;;;3.33;;
17818;SDS011;9034;50.284;19.310;2024-02-23T03:02:48;6.45;;;3.70;;
17818;SDS011;9034;50.284;19.310;2024-02-23T03:03:52;4.35;;;3.72;;
17818;SDS011;9034;50.284;19.310;2024-02-23T03:04:55;4.63;;;3.80;;
17818;SDS011;9034;50.284;19.310;2024-02-23T03:05:57;4.95;;;3.90;;
17818;SDS011;9034;50.284;19.310;2024-02-23T03:07:00;4.13;;;3.40;;
17818;SDS011;9034;50.284;19.310;2024-02-23T03:08:02;3.67;;;3.08;;
17818;SDS011;9034;50.284;19.310;2024-02-23T03:09:05;5.07;;;3.70;;
17818;SDS011;9034;50.284;19.310;2024-02-23T03:10:08;5.28;;;3.72;;
17818;SDS011;9034;50.284;19.310;2024-02-23T03:11:10;3.92;;;3.30;;
17818;SDS011;9034;50.284;19.310;2024-02-23T03:12:13;4.32;;;3.67;;
17818;SDS011;9034;50.284;19.310;2024-02-23T03:13:15;4.32;;;3.92;;
17818;SDS011;9034;50.284;19.310;2024-02-23T03:14:18;5.93;;;3.90;;
17818;SDS011;9034;50.284;19.310;2024-02-23T03:15:22;5.00;;;3.65;;
17818;SDS011;9034;50.284;19.310;2024-02-23T03:16:25;4.63;;;3.78;;
17818;SDS011;9034;50.284;19.310;2024-02-23T03:17:27;3.63;;;3.33;;
17818;SDS011;9034;50.284;19.310;2024-02-23T03:18:30;6.68;;;4.20;;
17818;SDS011;9034;50.284;19.310;2024-02-23T03:19:34;4.90;;;3.88;;
17818;SDS011;9034;50.284;19.310;2024-02-23T03:20:36;5.32;;;3.88;;
17818;SDS011;9034;50.284;19.310;2024-02-23T03:21:38;4.20;;;3.60;;
17818;SDS011;9034;50.284;19.310;2024-02-23T03:22:41;4.65;;;3.85;;
17818;SDS011;9034;50.284;19.310;2024-02-23T03:23:43;5.68;;;3.95;;
17818;SDS011;9034;50.284;19.310;2024-02-23T03:24:46;4.55;;;3.50;;
17818;SDS011;9034;50.284;19.310;2024-02-23T03:25:48;4.80;;;3.78;;
17818;SDS011;9034;50.284;19.310;2024-02-23T03:26:51;3.78;;;3.38;;
17818;SDS011;9034;50.284;19.310;2024-02-23T03:27:53;5.15;;;3.80;;
17818;SDS011;9034;50.284;19.310;2024-02-23T03:28:56;6.35;;;3.88;;
17818;SDS011;9034;50.284;19.310;2024-02-23T03:29:58;5.15;;;3.80;;
17818;SDS011;9034;50.284;19.310;2024-02-23T03:31:01;5.35;;;4.20;;
17818;SDS011;9034;50.284;19.310;2024-02-23T03:32:04;5.47;;;3.63;;
17818;SDS011;9034;50.284;19.310;2024-02-23T03:33:07;6.20;;;4.25;;
17818;SDS011;9034;50.284;19.310;2024-02-23T03:34:09;5.32;;;3.72;;
17818;SDS011;9034;50.284;19.310;2024-02-23T03:35:16;7.80;;;4.28;;
17818;SDS011;9034;50.284;19.310;2024-02-23T03:36:18;4.63;;;4.15;;
17818;SDS011;9034;50.284;19.310;2024-02-23T03:37:21;6.18;;;4.10;;
17818;SDS011;9034;50.284;19.310;2024-02-23T03:38:23;6.57;;;4.43;;
17818;SDS011;9034;50.284;19.310;2024-02-23T03:39:27;7.13;;;3.97;;
17818;SDS011;9034;50.284;19.310;2024-02-23T03:40:30;6.35;;;4.20;;
17818;SDS011;9034;50.284;19.310;2024-02-23T03:41:32;5.75;;;4.00;;
17818;SDS011;9034;50.284;19.310;2024-02-23T03:42:35;6.32;;;4.10;;
17818;SDS011;9034;50.284;19.310;2024-02-23T03:43:37;6.68;;;3.83;;
17818;SDS011;9034;50.284;19.310;2024-02-23T03:44:40;5.32;;;4.10;;
17818;SDS011;9034;50.284;19.310;2024-02-23T03:45:44;5.22;;;4.35;;
17818;SDS011;9034;50.284;19.310;2024-02-23T03:46:47;4.05;;;3.65;;
17818;SDS011;9034;50.284;19.310;2024-02-23T03:47:49;5.75;;;4.43;;
17818;SDS011;9034;50.284;19.310;2024-02-23T03:48:52;4.13;;;3.67;;
17818;SDS011;9034;50.284;19.310;2024-02-23T03:49:54;6.85;;;5.00;;
17818;SDS011;9034;50.284;19.310;2024-02-23T03:50:58;6.03;;;4.85;;
17818;SDS011;9034;50.284;19.310;2024-02-23T03:52:00;7.07;;;4.57;;
17818;SDS011;9034;50.284;19.310;2024-02-23T03:53:03;4.93;;;4.43;;
17818;SDS011;9034;50.284;19.310;2024-02-23T03:54:05;5.15;;;4.30;;
17818;SDS011;9034;50.284;19.310;2024-02-23T03:55:09;7.93;;;4.45;;
17818;SDS011;9034;50.284;19.310;2024-02-23T03:56:11;5.07;;;4.05;;
17818;SDS011;9034;50.284;19.310;2024-02-23T03:57:14;5.97;;;4.80;;
17818;SDS011;9034;50.284;19.310;2024-02-23T03:58:16;5.70;;;5.10;;
17818;SDS011;9034;50.284;19.310;2024-02-23T03:59:19;6.97;;;5.45;;
17818;SDS011;9034;50.284;19.310;2024-02-23T04:00:22;5.97;;;4.93;;
17818;SDS011;9034;50.284;19.310;2024-02-23T04:01:25;6.18;;;5.18;;
17818;SDS011;9034;50.284;19.310;2024-02-23T04:02:27;8.05;;;5.05;;
17818;SDS011;9034;50.284;19.310;2024-02-23T04:03:30;5.70;;;5.18;;
17818;SDS011;9034;50.284;19.310;2024-02-23T04:04:33;7.35;;;5.00;;
17818;SDS011;9034;50.284;19.310;2024-02-23T04:05:36;6.00;;;5.40;;
17818;SDS011;9034;50.284;19.310;2024-02-23T04:06:39;6.60;;;5.07;;
17818;SDS011;9034;50.284;19.310;2024-02-23T04:07:43;6.30;;;5.32;;
17818;SDS011;9034;50.284;19.310;2024-02-23T04:08:44;7.63;;;5.40;;
17818;SDS011;9034;50.284;19.310;2024-02-23T04:09:51;6.28;;;5.18;;
17818;SDS011;9034;50.284;19.310;2024-02-23T04:10:54;6.72;;;5.15;;
17818;SDS011;9034;50.284;19.310;2024-02-23T04:11:57;6.47;;;5.80;;
17818;SDS011;9034;50.284;19.310;2024-02-23T04:12:59;7.60;;;5.75;;
17818;SDS011;9034;50.284;19.310;2024-02-23T04:14:03;6.90;;;5.40;;
17818;SDS011;9034;50.284;19.310;2024-02-23T04:15:07;8.90;;;5.78;;
17818;SDS011;9034;50.284;19.310;2024-02-23T04:16:10;8.32;;;5.47;;
17818;SDS011;9034;50.284;19.310;2024-02-23T04:17:12;6.63;;;5.22;;
17818;SDS011;9034;50.284;19.310;2024-02-23T04:18:15;7.60;;;5.90;;
17818;SDS011;9034;50.284;19.310;2024-02-23T04:19:17;7.10;;;5.78;;
17818;SDS011;9034;50.284;19.310;2024-02-23T04:20:20;6.70;;;6.00;;
17818;SDS011;9034;50.284;19.310;2024-02-23T04:21:23;8.80;;;5.82;;
17818;SDS011;9034;50.284;19.310;2024-02-23T04:22:28;6.95;;;6.18;;
17818;SDS011;9034;50.284;19.310;2024-02-23T04:23:29;9.48;;;6.72;;
17818;SDS011;9034;50.284;19.310;2024-02-23T04:24:33;9.07;;;6.38;;
17818;SDS011;9034;50.284;19.310;2024-02-23T04:25:34;6.47;;;5.88;;
17818;SDS011;9034;50.284;19.310;2024-02-23T04:26:38;7.88;;;6.82;;
17818;SDS011;9034;50.284;19.310;2024-02-23T04:27:40;8.63;;;6.82;;
17818;SDS011;9034;50.284;19.310;2024-02-23T04:28:44;8.27;;;6.70;;
17818;SDS011;9034;50.284;19.310;2024-02-23T04:29:46;8.23;;;6.93;;
17818;SDS011;9034;50.284;19.310;2024-02-23T04:30:49;7.60;;;6.80;;
17818;SDS011;9034;50.284;19.310;2024-02-23T04:31:51;7.72;;;6.93;;
17818;SDS011;9034;50.284;19.310;2024-02-23T04:32:54;8.57;;;6.47;;
17818;SDS011;9034;50.284;19.310;2024-02-23T04:33:56;7.30;;;6.55;;
17818;SDS011;9034;50.284;19.310;2024-02-23T04:34:59;7.63;;;6.60;;
17818;SDS011;9034;50.284;19.310;2024-02-23T04:36:02;9.23;;;6.88;;
17818;SDS011;9034;50.284;19.310;2024-02-23T04:37:05;9.35;;;6.43;;
17818;SDS011;9034;50.284;19.310;2024-02-23T04:38:10;10.50;;;6.43;;
17818;SDS011;9034;50.284;19.310;2024-02-23T04:39:12;7.20;;;6.30;;
17818;SDS011;9034;50.284;19.310;2024-02-23T04:40:15;9.10;;;6.10;;
17818;SDS011;9034;50.284;19.310;2024-02-23T04:41:19;7.97;;;6.88;;
17818;SDS011;9034;50.284;19.310;2024-02-23T04:42:22;9.68;;;6.68;;
17818;SDS011;9034;50.284;19.310;2024-02-23T04:43:24;8.30;;;6.35;;
17818;SDS011;9034;50.284;19.310;2024-02-23T04:44:27;9.20;;;6.80;;
17818;SDS011;9034;50.284;19.310;2024-02-23T04:45:30;8.75;;;6.78;;
17818;SDS011;9034;50.284;19.310;2024-02-23T04:46:33;7.82;;;6.70;;
17818;SDS011;9034;50.284;19.310;2024-02-23T04:47:36;9.32;;;6.60;;
17818;SDS011;9034;50.284;19.310;2024-02-23T04:48:40;8.40;;;6.97;;
17818;SDS011;9034;50.284;19.310;2024-02-23T04:49:42;7.43;;;6.63;;
17818;SDS011;9034;50.284;19.310;2024-02-23T04:50:45;14.07;;;7.13;;
17818;SDS011;9034;50.284;19.310;2024-02-23T04:51:47;9.48;;;6.32;;
17818;SDS011;9034;50.284;19.310;2024-02-23T04:52:50;8.00;;;6.57;;
17818;SDS011;9034;50.284;19.310;2024-02-23T04:53:53;8.50;;;6.57;;
17818;SDS011;9034;50.284;19.310;2024-02-23T04:54:56;7.40;;;6.35;;
17818;SDS011;9034;50.284;19.310;2024-02-23T04:55:58;8.23;;;6.80;;
17818;SDS011;9034;50.284;19.310;2024-02-23T04:57:01;10.50;;;7.32;;
17818;SDS011;9034;50.284;19.310;2024-02-23T04:58:04;8.75;;;6.90;;
17818;SDS011;9034;50.284;19.310;2024-02-23T04:59:07;8.90;;;6.10;;
17818;SDS011;9034;50.284;19.310;2024-02-23T05:00:09;9.98;;;7.38;;
17818;SDS011;9034;50.284;19.310;2024-02-23T05:01:13;10.52;;;7.43;;
17818;SDS011;9034;50.284;19.310;2024-02-23T05:02:15;8.40;;;6.93;;
17818;SDS011;9034;50.284;19.310;2024-02-23T05:03:18;9.55;;;6.70;;
17818;SDS011;9034;50.284;19.310;2024-02-23T05:04:20;9.52;;;7.07;;
17818;SDS011;9034;50.284;19.310;2024-02-23T05:05:23;8.57;;;6.88;;
17818;SDS011;9034;50.284;19.310;2024-02-23T05:06:25;11.75;;;7.47;;
17818;SDS011;9034;50.284;19.310;2024-02-23T05:07:28;10.20;;;7.45;;
17818;SDS011;9034;50.284;19.310;2024-02-23T05:08:30;9.05;;;7.88;;
17818;SDS011;9034;50.284;19.310;2024-02-23T05:09:35;10.25;;;8.48;;
17818;SDS011;9034;50.284;19.310;2024-02-23T05:10:37;9.57;;;8.05;;
17818;SDS011;9034;50.284;19.310;2024-02-23T05:11:40;10.50;;;8.65;;
17818;SDS011;9034;50.284;19.310;2024-02-23T05:12:42;10.65;;;9.27;;
17818;SDS011;9034;50.284;19.310;2024-02-23T05:13:45;10.30;;;8.65;;
17818;SDS011;9034;50.284;19.310;2024-02-23T05:14:47;10.10;;;9.10;;
17818;SDS011;9034;50.284;19.310;2024-02-23T05:15:50;10.70;;;9.25;;
17818;SDS011;9034;50.284;19.310;2024-02-23T05:16:52;8.90;;;8.00;;
17818;SDS011;9034;50.284;19.310;2024-02-23T05:17:55;11.30;;;8.63;;
17818;SDS011;9034;50.284;19.310;2024-02-23T05:18:57;12.57;;;9.40;;
17818;SDS011;9034;50.284;19.310;2024-02-23T05:20:00;7.75;;;6.38;;
17818;SDS011;9034;50.284;19.310;2024-02-23T05:21:08;8.20;;;7.15;;
17818;SDS011;9034;50.284;19.310;2024-02-23T05:22:11;6.70;;;6.10;;
17818;SDS011;9034;50.284;19.310;2024-02-23T05:23:13;10.30;;;6.68;;
17818;SDS011;9034;50.284;19.310;2024-02-23T05:24:18;8.57;;;6.50;;
17818;SDS011;9034;50.284;19.310;2024-02-23T05:25:21;10.52;;;6.40;;
17818;SDS011;9034;50.284;19.310;2024-02-23T05:26:24;6.72;;;6.03;;
17818;SDS011;9034;50.284;19.310;2024-02-23T05:27:26;9.40;;;5.20;;
17818;SDS011;9034;50.284;19.310;2024-02-23T05:28:30;6.97;;;5.57;;
17818;SDS011;9034;50.284;19.310;2024-02-23T05:29:32;5.88;;;5.35;;
17818;SDS011;9034;50.284;19.310;2024-02-23T05:30:35;6.72;;;5.00;;
17818;SDS011;9034;50.284;19.310;2024-02-23T05:31:45;6.03;;;5.35;;
17818;SDS011;9034;50.284;19.310;2024-02-23T05:32:49;5.70;;;4.78;;
17818;SDS011;9034;50.284;19.310;2024-02-23T05:33:52;6.30;;;4.57;;
17818;SDS011;9034;50.284;19.310;2024-02-23T05:34:55;5.85;;;4.75;;
17818;SDS011;9034;50.284;19.310;2024-02-23T05:35:59;6.07;;;4.95;;
17818;SDS011;9034;50.284;19.310;2024-02-23T05:37:02;7.38;;;5.47;;
17818;SDS011;9034;50.284;19.310;2024-02-23T05:38:04;6.50;;;5.53;;
17818;SDS011;9034;50.284;19.310;2024-02-23T05:39:07;6.90;;;5.28;;
17818;SDS011;9034;50.284;19.310;2024-02-23T05:40:11;7.45;;;5.60;;
17818;SDS011;9034;50.284;19.310;2024-02-23T05:41:15;7.40;;;5.35;;
17818;SDS011;9034;50.284;19.310;2024-02-23T05:42:17;7.88;;;5.25;;
17818;SDS011;9034;50.284;19.310;2024-02-23T05:43:20;8.57;;;5.57;;
17818;SDS011;9034;50.284;19.310;2024-02-23T05:44:22;8.48;;;5.38;;
17818;SDS011;9034;50.284;19.310;2024-02-23T05:45:25;7.78;;;5.63;;
17818;SDS011;9034;50.284;19.310;2024-02-23T05:46:27;7.63;;;5.45;;
17818;SDS011;9034;50.284;19.310;2024-02-23T05:47:30;7.22;;;5.82;;
17818;SDS011;9034;50.284;19.310;2024-02-23T05:48:32;7.43;;;6.10;;
17818;SDS011;9034;50.284;19.310;2024-02-23T05:49:35;8.68;;;6.00;;
17818;SDS011;9034;50.284;19.310;2024-02-23T05:50:37;7.05;;;6.07;;
17818;SDS011;9034;50.284;19.310;2024-02-23T05:51:40;8.48;;;6.15;;
17818;SDS011;9034;50.284;19.310;2024-02-23T05:52:42;7.85;;;6.85;;
17818;SDS011;9034;50.284;19.310;2024-02-23T05:53:45;7.68;;;6.85;;
17818;SDS011;9034;50.284;19.310;2024-02-23T05:54:47;12.93;;;7.72;;
17818;SDS011;9034;50.284;19.310;2024-02-23T05:55:53;9.45;;;6.78;;
17818;SDS011;9034;50.284;19.310;2024-02-23T05:56:56;8.68;;;7.28;;
17818;SDS011;9034;50.284;19.310;2024-02-23T05:57:59;8.75;;;7.00;;
17818;SDS011;9034;50.284;19.310;2024-02-23T05:59:01;7.20;;;6.07;;
17818;SDS011;9034;50.284;19.310;2024-02-23T06:00:05;8.10;;;6.38;;
17818;SDS011;9034;50.284;19.310;2024-02-23T06:01:14;8.10;;;6.22;;
17818;SDS011;9034;50.284;19.310;2024-02-23T06:02:17;8.25;;;6.30;;
17818;SDS011;9034;50.284;19.310;2024-02-23T06:03:20;7.75;;;6.43;;
17818;SDS011;9034;50.284;19.310;2024-02-23T06:04:22;7.32;;;6.20;;
17818;SDS011;9034;50.284;19.310;2024-02-23T06:05:25;11.93;;;6.30;;
17818;SDS011;9034;50.284;19.310;2024-02-23T06:06:29;6.70;;;5.68;;
17818;SDS011;9034;50.284;19.310;2024-02-23T06:07:33;6.68;;;5.70;;
17818;SDS011;9034;50.284;19.310;2024-02-23T06:08:36;9.18;;;6.70;;
17818;SDS011;9034;50.284;19.310;2024-02-23T06:09:39;10.00;;;7.28;;
17818;SDS011;9034;50.284;19.310;2024-02-23T06:10:41;8.30;;;7.20;;
17818;SDS011;9034;50.284;19.310;2024-02-23T06:11:45;10.50;;;7.45;;
17818;SDS011;9034;50.284;19.310;2024-02-23T06:12:49;9.07;;;6.63;;
17818;SDS011;9034;50.284;19.310;2024-02-23T06:13:55;8.65;;;7.72;;
17818;SDS011;9034;50.284;19.310;2024-02-23T06:14:57;8.68;;;7.03;;
17818;SDS011;9034;50.284;19.310;2024-02-23T06:16:00;12.63;;;11.02;;
17818;SDS011;9034;50.284;19.310;2024-02-23T06:17:02;13.20;;;11.80;;
17818;SDS011;9034;50.284;19.310;2024-02-23T06:18:08;9.40;;;8.38;;
17818;SDS011;9034;50.284;19.310;2024-02-23T06:19:10;12.85;;;9.00;;
17818;SDS011;9034;50.284;19.310;2024-02-23T06:20:12;9.13;;;8.23;;